Terminal Aerodrome Forecast
Issued by NWS La Crosse, WI

Home | Current Version | Previous Version | Text Only | Print | Product List | Glossary On
Versions: 1 2 3 4 5 6 7 8 9 10 11 12 13 14 15 16 17 18 19
000
FTUS43 KARX 181125
TAFRST
TAF
KRST 181125Z 1812/1912 VRB04KT 3SM BR BKN080
     FM181400 11010KT P6SM BKN080
     FM190000 13013KT P6SM SCT120
     FM191000 15017KT P6SM SCT150=

USA.gov is the U.S. government's official web portal to all federal, state and local government web resources and services.